sensor_id;sensor_type;location;lat;lon;timestamp;temperature;humidity
19050;DHT22;9657;45.940;12.840;2022-12-07T00:00:52;13.00;75.30
19050;DHT22;9657;45.940;12.840;2022-12-07T00:03:19;13.00;75.30
19050;DHT22;9657;45.940;12.840;2022-12-07T00:05:46;13.00;75.30
19050;DHT22;9657;45.940;12.840;2022-12-07T00:08:13;13.00;75.30
19050;DHT22;9657;45.940;12.840;2022-12-07T00:10:42;13.00;75.30
19050;DHT22;9657;45.940;12.840;2022-12-07T00:13:08;13.00;75.30
19050;DHT22;9657;45.940;12.840;2022-12-07T00:15:35;13.00;75.20
19050;DHT22;9657;45.940;12.840;2022-12-07T00:18:03;13.00;75.10
19050;DHT22;9657;45.940;12.840;2022-12-07T00:20:30;13.00;75.10
19050;DHT22;9657;45.940;12.840;2022-12-07T00:22:57;13.00;75.10
19050;DHT22;9657;45.940;12.840;2022-12-07T00:25:24;13.00;75.10
19050;DHT22;9657;45.940;12.840;2022-12-07T00:27:53;13.00;75.10
19050;DHT22;9657;45.940;12.840;2022-12-07T00:30:22;13.00;75.10
19050;DHT22;9657;45.940;12.840;2022-12-07T00:32:49;13.00;75.00
19050;DHT22;9657;45.940;12.840;2022-12-07T00:35:17;13.00;75.00
19050;DHT22;9657;45.940;12.840;2022-12-07T00:37:44;13.00;74.90
19050;DHT22;9657;45.940;12.840;2022-12-07T00:40:11;13.00;74.90
19050;DHT22;9657;45.940;12.840;2022-12-07T00:42:38;13.00;74.80
19050;DHT22;9657;45.940;12.840;2022-12-07T00:45:08;13.00;74.80
19050;DHT22;9657;45.940;12.840;2022-12-07T00:47:35;13.00;74.80
19050;DHT22;9657;45.940;12.840;2022-12-07T00:50:03;13.00;74.70
19050;DHT22;9657;45.940;12.840;2022-12-07T00:52:30;13.00;74.80
19050;DHT22;9657;45.940;12.840;2022-12-07T00:54:57;12.90;74.60
19050;DHT22;9657;45.940;12.840;2022-12-07T00:57:24;13.00;74.70
19050;DHT22;9657;45.940;12.840;2022-12-07T00:59:51;12.90;74.60
19050;DHT22;9657;45.940;12.840;2022-12-07T01:02:22;12.90;74.60
19050;DHT22;9657;45.940;12.840;2022-12-07T01:04:49;12.90;74.60
19050;DHT22;9657;45.940;12.840;2022-12-07T01:07:16;13.00;74.60
19050;DHT22;9657;45.940;12.840;2022-12-07T01:09:43;13.00;74.60
19050;DHT22;9657;45.940;12.840;2022-12-07T01:12:10;12.90;74.50
19050;DHT22;9657;45.940;12.840;2022-12-07T01:14:37;12.90;74.50
19050;DHT22;9657;45.940;12.840;2022-12-07T01:17:04;12.90;74.40
19050;DHT22;9657;45.940;12.840;2022-12-07T01:19:32;12.90;74.40
19050;DHT22;9657;45.940;12.840;2022-12-07T01:21:59;12.90;74.30
19050;DHT22;9657;45.940;12.840;2022-12-07T01:24:26;12.90;74.30
19050;DHT22;9657;45.940;12.840;2022-12-07T01:26:53;12.90;74.30
19050;DHT22;9657;45.940;12.840;2022-12-07T01:29:20;12.90;74.30
19050;DHT22;9657;45.940;12.840;2022-12-07T01:31:48;12.90;74.20
19050;DHT22;9657;45.940;12.840;2022-12-07T01:34:16;12.90;74.20
19050;DHT22;9657;45.940;12.840;2022-12-07T01:36:44;12.90;74.20
19050;DHT22;9657;45.940;12.840;2022-12-07T01:39:11;12.90;74.20
19050;DHT22;9657;45.940;12.840;2022-12-07T01:41:40;12.90;74.20
19050;DHT22;9657;45.940;12.840;2022-12-07T01:44:17;12.90;74.10
19050;DHT22;9657;45.940;12.840;2022-12-07T01:46:46;12.90;74.20
19050;DHT22;9657;45.940;12.840;2022-12-07T01:49:17;12.90;74.10
19050;DHT22;9657;45.940;12.840;2022-12-07T01:51:49;12.90;74.10
19050;DHT22;9657;45.940;12.840;2022-12-07T01:54:16;12.90;74.00
19050;DHT22;9657;45.940;12.840;2022-12-07T01:56:48;12.90;74.00
19050;DHT22;9657;45.940;12.840;2022-12-07T01:59:18;12.90;74.00
19050;DHT22;9657;45.940;12.840;2022-12-07T02:04:22;12.90;74.00
19050;DHT22;9657;45.940;12.840;2022-12-07T02:06:51;12.90;73.90
19050;DHT22;9657;45.940;12.840;2022-12-07T02:09:18;12.90;74.00
19050;DHT22;9657;45.940;12.840;2022-12-07T02:11:46;12.90;73.80
19050;DHT22;9657;45.940;12.840;2022-12-07T02:14:13;12.90;73.80
19050;DHT22;9657;45.940;12.840;2022-12-07T02:16:47;12.90;73.80
19050;DHT22;9657;45.940;12.840;2022-12-07T02:19:51;12.80;73.80
19050;DHT22;9657;45.940;12.840;2022-12-07T02:22:50;12.80;73.80
19050;DHT22;9657;45.940;12.840;2022-12-07T02:25:25;12.80;73.70
19050;DHT22;9657;45.940;12.840;2022-12-07T02:28:03;12.80;73.70
19050;DHT22;9657;45.940;12.840;2022-12-07T02:30:35;12.80;73.70
19050;DHT22;9657;45.940;12.840;2022-12-07T02:33:11;12.80;73.70
19050;DHT22;9657;45.940;12.840;2022-12-07T02:35:42;12.80;73.70
19050;DHT22;9657;45.940;12.840;2022-12-07T02:38:14;12.80;73.60
19050;DHT22;9657;45.940;12.840;2022-12-07T02:40:46;12.80;73.60
19050;DHT22;9657;45.940;12.840;2022-12-07T02:43:17;12.80;73.60
19050;DHT22;9657;45.940;12.840;2022-12-07T02:45:48;12.80;73.60
19050;DHT22;9657;45.940;12.840;2022-12-07T02:48:17;12.80;73.60
19050;DHT22;9657;45.940;12.840;2022-12-07T02:50:47;12.80;73.60
19050;DHT22;9657;45.940;12.840;2022-12-07T02:53:32;12.80;73.50
19050;DHT22;9657;45.940;12.840;2022-12-07T02:56:03;12.80;73.50
19050;DHT22;9657;45.940;12.840;2022-12-07T02:58:40;12.80;73.50
19050;DHT22;9657;45.940;12.840;2022-12-07T03:01:24;12.80;73.40
19050;DHT22;9657;45.940;12.840;2022-12-07T03:03:59;12.80;73.40
19050;DHT22;9657;45.940;12.840;2022-12-07T03:06:31;12.80;73.40
19050;DHT22;9657;45.940;12.840;2022-12-07T03:09:06;12.80;73.40
19050;DHT22;9657;45.940;12.840;2022-12-07T03:11:43;12.80;73.30
19050;DHT22;9657;45.940;12.840;2022-12-07T03:14:13;12.80;73.30
19050;DHT22;9657;45.940;12.840;2022-12-07T03:16:46;12.80;73.30
19050;DHT22;9657;45.940;12.840;2022-12-07T03:19:18;12.80;73.20
19050;DHT22;9657;45.940;12.840;2022-12-07T03:21:49;12.80;73.30
19050;DHT22;9657;45.940;12.840;2022-12-07T03:24:21;12.80;73.20
19050;DHT22;9657;45.940;12.840;2022-12-07T03:26:51;12.80;73.20
19050;DHT22;9657;45.940;12.840;2022-12-07T03:29:22;12.80;73.20
19050;DHT22;9657;45.940;12.840;2022-12-07T03:31:57;12.80;73.10
19050;DHT22;9657;45.940;12.840;2022-12-07T03:34:29;12.80;73.10
19050;DHT22;9657;45.940;12.840;2022-12-07T03:37:01;12.80;73.20
19050;DHT22;9657;45.940;12.840;2022-12-07T03:39:33;12.80;73.10
19050;DHT22;9657;45.940;12.840;2022-12-07T03:42:05;12.80;73.10
19050;DHT22;9657;45.940;12.840;2022-12-07T03:44:34;12.70;73.00
19050;DHT22;9657;45.940;12.840;2022-12-07T03:47:05;12.80;73.10
19050;DHT22;9657;45.940;12.840;2022-12-07T03:49:39;12.80;73.10
19050;DHT22;9657;45.940;12.840;2022-12-07T03:52:12;12.70;73.00
19050;DHT22;9657;45.940;12.840;2022-12-07T03:54:47;12.70;73.00
19050;DHT22;9657;45.940;12.840;2022-12-07T03:57:16;12.80;73.00
19050;DHT22;9657;45.940;12.840;2022-12-07T03:59:44;12.70;73.00
19050;DHT22;9657;45.940;12.840;2022-12-07T04:02:13;12.70;72.90
19050;DHT22;9657;45.940;12.840;2022-12-07T04:04:42;12.70;72.90
19050;DHT22;9657;45.940;12.840;2022-12-07T04:07:09;12.70;72.90
19050;DHT22;9657;45.940;12.840;2022-12-07T04:09:38;12.80;73.00
19050;DHT22;9657;45.940;12.840;2022-12-07T04:12:06;12.70;72.90
19050;DHT22;9657;45.940;12.840;2022-12-07T04:14:33;12.70;72.80
19050;DHT22;9657;45.940;12.840;2022-12-07T04:17:00;12.70;72.80
19050;DHT22;9657;45.940;12.840;2022-12-07T04:19:31;12.70;72.80
19050;DHT22;9657;45.940;12.840;2022-12-07T04:21:59;12.70;72.80
19050;DHT22;9657;45.940;12.840;2022-12-07T04:24:27;12.70;72.70
19050;DHT22;9657;45.940;12.840;2022-12-07T04:26:55;12.70;72.70
19050;DHT22;9657;45.940;12.840;2022-12-07T04:29:22;12.70;72.80
19050;DHT22;9657;45.940;12.840;2022-12-07T04:31:50;12.70;72.70
19050;DHT22;9657;45.940;12.840;2022-12-07T04:34:17;12.70;72.70
19050;DHT22;9657;45.940;12.840;2022-12-07T04:36:46;12.70;72.70
19050;DHT22;9657;45.940;12.840;2022-12-07T04:39:19;12.70;72.70
19050;DHT22;9657;45.940;12.840;2022-12-07T04:41:46;12.70;72.70
19050;DHT22;9657;45.940;12.840;2022-12-07T04:44:14;12.70;72.70
19050;DHT22;9657;45.940;12.840;2022-12-07T04:46:42;12.70;72.70
19050;DHT22;9657;45.940;12.840;2022-12-07T04:49:10;12.70;72.70
19050;DHT22;9657;45.940;12.840;2022-12-07T04:51:37;12.70;72.60
19050;DHT22;9657;45.940;12.840;2022-12-07T04:54:06;12.70;72.70
19050;DHT22;9657;45.940;12.840;2022-12-07T04:56:33;12.70;72.60
19050;DHT22;9657;45.940;12.840;2022-12-07T04:59:02;12.70;72.60
19050;DHT22;9657;45.940;12.840;2022-12-07T05:01:30;12.70;72.60
19050;DHT22;9657;45.940;12.840;2022-12-07T05:03:57;12.70;72.60
19050;DHT22;9657;45.940;12.840;2022-12-07T05:06:24;12.70;72.50
19050;DHT22;9657;45.940;12.840;2022-12-07T05:08:51;12.70;72.60
19050;DHT22;9657;45.940;12.840;2022-12-07T05:11:20;12.70;72.60
19050;DHT22;9657;45.940;12.840;2022-12-07T05:14:07;12.70;72.50
19050;DHT22;9657;45.940;12.840;2022-12-07T05:16:35;12.70;72.50
19050;DHT22;9657;45.940;12.840;2022-12-07T05:19:02;12.60;72.40
19050;DHT22;9657;45.940;12.840;2022-12-07T05:21:30;12.70;72.50
19050;DHT22;9657;45.940;12.840;2022-12-07T05:23:57;12.60;72.40
19050;DHT22;9657;45.940;12.840;2022-12-07T05:26:25;12.60;72.50
19050;DHT22;9657;45.940;12.840;2022-12-07T05:28:53;12.60;72.40
19050;DHT22;9657;45.940;12.840;2022-12-07T05:31:20;12.60;72.30
19050;DHT22;9657;45.940;12.840;2022-12-07T05:33:47;12.60;72.40
19050;DHT22;9657;45.940;12.840;2022-12-07T05:36:14;12.60;72.30
19050;DHT22;9657;45.940;12.840;2022-12-07T05:38:42;12.60;72.30
19050;DHT22;9657;45.940;12.840;2022-12-07T05:41:12;12.60;72.30
19050;DHT22;9657;45.940;12.840;2022-12-07T05:43:55;12.60;72.30
19050;DHT22;9657;45.940;12.840;2022-12-07T05:46:22;12.60;72.30
19050;DHT22;9657;45.940;12.840;2022-12-07T05:48:49;12.60;72.30
19050;DHT22;9657;45.940;12.840;2022-12-07T05:51:16;12.60;72.20
19050;DHT22;9657;45.940;12.840;2022-12-07T05:53:44;12.60;72.30
19050;DHT22;9657;45.940;12.840;2022-12-07T05:56:11;12.60;72.20
19050;DHT22;9657;45.940;12.840;2022-12-07T05:58:38;12.60;72.20
19050;DHT22;9657;45.940;12.840;2022-12-07T06:01:24;12.60;72.20
19050;DHT22;9657;45.940;12.840;2022-12-07T06:03:51;12.60;72.20
19050;DHT22;9657;45.940;12.840;2022-12-07T06:06:18;12.60;72.20
19050;DHT22;9657;45.940;12.840;2022-12-07T06:08:45;12.60;72.20
19050;DHT22;9657;45.940;12.840;2022-12-07T06:11:12;12.60;72.20
19050;DHT22;9657;45.940;12.840;2022-12-07T06:13:56;12.60;72.20
19050;DHT22;9657;45.940;12.840;2022-12-07T06:16:25;12.60;72.20
19050;DHT22;9657;45.940;12.840;2022-12-07T06:18:52;12.60;72.20
19050;DHT22;9657;45.940;12.840;2022-12-07T06:21:19;12.60;72.20
19050;DHT22;9657;45.940;12.840;2022-12-07T06:23:46;12.60;72.20
19050;DHT22;9657;45.940;12.840;2022-12-07T06:26:13;12.60;72.20
19050;DHT22;9657;45.940;12.840;2022-12-07T06:28:40;12.60;72.10
19050;DHT22;9657;45.940;12.840;2022-12-07T06:31:07;12.60;72.20
19050;DHT22;9657;45.940;12.840;2022-12-07T06:33:36;12.60;72.10
19050;DHT22;9657;45.940;12.840;2022-12-07T06:36:03;12.60;72.10
19050;DHT22;9657;45.940;12.840;2022-12-07T06:38:30;12.60;72.10
19050;DHT22;9657;45.940;12.840;2022-12-07T06:40:57;12.60;72.10
19050;DHT22;9657;45.940;12.840;2022-12-07T06:43:24;12.60;72.10
19050;DHT22;9657;45.940;12.840;2022-12-07T06:45:51;12.60;72.10
19050;DHT22;9657;45.940;12.840;2022-12-07T06:48:18;12.60;72.10
19050;DHT22;9657;45.940;12.840;2022-12-07T06:50:47;12.60;72.10
19050;DHT22;9657;45.940;12.840;2022-12-07T06:53:14;12.60;72.00
19050;DHT22;9657;45.940;12.840;2022-12-07T06:55:41;12.60;72.10
19050;DHT22;9657;45.940;12.840;2022-12-07T06:58:09;12.50;72.00
19050;DHT22;9657;45.940;12.840;2022-12-07T07:00:36;12.60;72.00
19050;DHT22;9657;45.940;12.840;2022-12-07T07:03:03;12.50;72.00
19050;DHT22;9657;45.940;12.840;2022-12-07T07:05:30;12.50;71.90
19050;DHT22;9657;45.940;12.840;2022-12-07T07:07:58;12.50;72.00
19050;DHT22;9657;45.940;12.840;2022-12-07T07:10:25;12.60;72.10
19050;DHT22;9657;45.940;12.840;2022-12-07T07:12:53;12.50;72.00
19050;DHT22;9657;45.940;12.840;2022-12-07T07:15:20;12.50;72.00
19050;DHT22;9657;45.940;12.840;2022-12-07T07:17:47;12.50;72.00
19050;DHT22;9657;45.940;12.840;2022-12-07T07:20:14;12.50;72.00
19050;DHT22;9657;45.940;12.840;2022-12-07T07:22:41;12.50;72.00
19050;DHT22;9657;45.940;12.840;2022-12-07T07:25:09;12.50;72.00
19050;DHT22;9657;45.940;12.840;2022-12-07T07:27:37;12.50;72.10
19050;DHT22;9657;45.940;12.840;2022-12-07T07:30:05;12.50;72.10
19050;DHT22;9657;45.940;12.840;2022-12-07T07:32:32;12.50;72.10
19050;DHT22;9657;45.940;12.840;2022-12-07T07:34:59;12.50;72.10
19050;DHT22;9657;45.940;12.840;2022-12-07T07:37:27;12.50;72.10
19050;DHT22;9657;45.940;12.840;2022-12-07T07:39:54;12.50;72.10
19050;DHT22;9657;45.940;12.840;2022-12-07T07:42:22;12.50;72.10
19050;DHT22;9657;45.940;12.840;2022-12-07T07:44:49;12.50;72.10
19050;DHT22;9657;45.940;12.840;2022-12-07T07:47:16;12.50;72.10
19050;DHT22;9657;45.940;12.840;2022-12-07T07:49:43;12.50;72.10
19050;DHT22;9657;45.940;12.840;2022-12-07T07:52:10;12.50;72.10
19050;DHT22;9657;45.940;12.840;2022-12-07T07:54:37;12.50;72.10
19050;DHT22;9657;45.940;12.840;2022-12-07T07:57:04;12.50;72.10
19050;DHT22;9657;45.940;12.840;2022-12-07T07:59:33;12.50;72.20
19050;DHT22;9657;45.940;12.840;2022-12-07T08:02:00;12.50;72.10
19050;DHT22;9657;45.940;12.840;2022-12-07T08:04:27;12.50;72.10
19050;DHT22;9657;45.940;12.840;2022-12-07T08:06:54;12.50;72.10
19050;DHT22;9657;45.940;12.840;2022-12-07T08:09:21;12.50;72.10
19050;DHT22;9657;45.940;12.840;2022-12-07T08:11:48;12.50;72.20
19050;DHT22;9657;45.940;12.840;2022-12-07T08:14:15;12.50;72.20
19050;DHT22;9657;45.940;12.840;2022-12-07T08:16:44;12.50;72.20
19050;DHT22;9657;45.940;12.840;2022-12-07T08:19:11;12.50;72.20
19050;DHT22;9657;45.940;12.840;2022-12-07T08:21:38;12.50;72.30
19050;DHT22;9657;45.940;12.840;2022-12-07T08:24:05;12.50;72.30
19050;DHT22;9657;45.940;12.840;2022-12-07T08:26:32;12.50;72.40
19050;DHT22;9657;45.940;12.840;2022-12-07T08:29:00;12.50;72.50
19050;DHT22;9657;45.940;12.840;2022-12-07T08:31:27;12.50;72.50
19050;DHT22;9657;45.940;12.840;2022-12-07T08:33:55;12.50;72.50
19050;DHT22;9657;45.940;12.840;2022-12-07T08:36:23;12.50;72.50
19050;DHT22;9657;45.940;12.840;2022-12-07T08:38:50;12.50;72.60
19050;DHT22;9657;45.940;12.840;2022-12-07T08:41:18;12.50;72.60
19050;DHT22;9657;45.940;12.840;2022-12-07T08:43:45;12.50;72.70
19050;DHT22;9657;45.940;12.840;2022-12-07T08:46:15;12.50;72.80
19050;DHT22;9657;45.940;12.840;2022-12-07T08:48:46;12.50;72.90
19050;DHT22;9657;45.940;12.840;2022-12-07T08:51:17;12.50;72.90
19050;DHT22;9657;45.940;12.840;2022-12-07T08:53:45;12.50;73.00
19050;DHT22;9657;45.940;12.840;2022-12-07T08:56:12;12.50;73.00
19050;DHT22;9657;45.940;12.840;2022-12-07T08:58:40;12.50;73.00
19050;DHT22;9657;45.940;12.840;2022-12-07T09:01:07;12.50;73.00
19050;DHT22;9657;45.940;12.840;2022-12-07T09:03:34;12.50;73.00
19050;DHT22;9657;45.940;12.840;2022-12-07T09:06:01;12.50;73.10
19050;DHT22;9657;45.940;12.840;2022-12-07T09:08:33;12.50;73.00
19050;DHT22;9657;45.940;12.840;2022-12-07T09:11:01;12.50;73.00
19050;DHT22;9657;45.940;12.840;2022-12-07T09:13:28;12.50;73.00
19050;DHT22;9657;45.940;12.840;2022-12-07T09:15:55;12.50;73.00
19050;DHT22;9657;45.940;12.840;2022-12-07T09:18:23;12.50;73.00
19050;DHT22;9657;45.940;12.840;2022-12-07T09:20:50;12.50;73.00
19050;DHT22;9657;45.940;12.840;2022-12-07T09:23:17;12.50;73.00
19050;DHT22;9657;45.940;12.840;2022-12-07T09:25:46;12.50;73.00
19050;DHT22;9657;45.940;12.840;2022-12-07T09:28:13;12.50;73.00
19050;DHT22;9657;45.940;12.840;2022-12-07T09:30:45;12.50;73.00
19050;DHT22;9657;45.940;12.840;2022-12-07T09:33:13;12.50;73.00
19050;DHT22;9657;45.940;12.840;2022-12-07T09:35:44;12.50;73.00
19050;DHT22;9657;45.940;12.840;2022-12-07T09:38:12;12.50;73.00
19050;DHT22;9657;45.940;12.840;2022-12-07T09:40:39;12.50;73.00
19050;DHT22;9657;45.940;12.840;2022-12-07T09:43:13;12.50;73.00
19050;DHT22;9657;45.940;12.840;2022-12-07T09:45:40;12.50;73.00
19050;DHT22;9657;45.940;12.840;2022-12-07T09:48:14;12.50;73.00
19050;DHT22;9657;45.940;12.840;2022-12-07T09:50:43;12.50;73.00
19050;DHT22;9657;45.940;12.840;2022-12-07T09:53:17;12.50;73.00
19050;DHT22;9657;45.940;12.840;2022-12-07T09:55:46;12.50;73.00
19050;DHT22;9657;45.940;12.840;2022-12-07T09:58:20;12.50;73.00
19050;DHT22;9657;45.940;12.840;2022-12-07T10:00:48;12.50;73.00
19050;DHT22;9657;45.940;12.840;2022-12-07T10:03:16;12.50;73.00
19050;DHT22;9657;45.940;12.840;2022-12-07T10:05:46;12.50;73.00
19050;DHT22;9657;45.940;12.840;2022-12-07T10:08:14;12.50;73.00
19050;DHT22;9657;45.940;12.840;2022-12-07T10:10:43;12.50;73.00
19050;DHT22;9657;45.940;12.840;2022-12-07T10:13:12;12.50;73.00
19050;DHT22;9657;45.940;12.840;2022-12-07T10:15:46;12.50;72.90
19050;DHT22;9657;45.940;12.840;2022-12-07T10:18:25;12.50;72.90
19050;DHT22;9657;45.940;12.840;2022-12-07T10:21:01;12.50;72.90
19050;DHT22;9657;45.940;12.840;2022-12-07T10:23:29;12.50;72.90
19050;DHT22;9657;45.940;12.840;2022-12-07T10:25:56;12.50;73.70
19050;DHT22;9657;45.940;12.840;2022-12-07T10:28:27;12.50;72.90
19050;DHT22;9657;45.940;12.840;2022-12-07T10:31:03;12.50;72.90
19050;DHT22;9657;45.940;12.840;2022-12-07T10:33:50;12.50;72.90
19050;DHT22;9657;45.940;12.840;2022-12-07T10:36:20;12.50;72.90
19050;DHT22;9657;45.940;12.840;2022-12-07T10:38:51;12.50;72.90
19050;DHT22;9657;45.940;12.840;2022-12-07T10:41:18;12.50;72.90
19050;DHT22;9657;45.940;12.840;2022-12-07T10:43:51;12.50;72.90
19050;DHT22;9657;45.940;12.840;2022-12-07T10:46:46;12.50;72.90
19050;DHT22;9657;45.940;12.840;2022-12-07T10:49:46;12.50;72.90
19050;DHT22;9657;45.940;12.840;2022-12-07T10:52:27;12.50;72.80
19050;DHT22;9657;45.940;12.840;2022-12-07T10:55:11;12.50;72.80
19050;DHT22;9657;45.940;12.840;2022-12-07T10:57:47;12.50;72.90
19050;DHT22;9657;45.940;12.840;2022-12-07T11:00:20;12.50;72.80
19050;DHT22;9657;45.940;12.840;2022-12-07T11:03:06;12.50;72.80
19050;DHT22;9657;45.940;12.840;2022-12-07T11:05:40;12.50;72.80
19050;DHT22;9657;45.940;12.840;2022-12-07T11:08:20;12.50;72.80
19050;DHT22;9657;45.940;12.840;2022-12-07T11:10:54;12.50;72.80
19050;DHT22;9657;45.940;12.840;2022-12-07T11:13:26;12.50;72.80
19050;DHT22;9657;45.940;12.840;2022-12-07T11:16:30;12.50;72.80
19050;DHT22;9657;45.940;12.840;2022-12-07T11:21:53;12.50;72.80
19050;DHT22;9657;45.940;12.840;2022-12-07T11:24:27;12.50;72.90
19050;DHT22;9657;45.940;12.840;2022-12-07T11:27:09;12.50;72.80
19050;DHT22;9657;45.940;12.840;2022-12-07T11:30:13;12.50;72.80
19050;DHT22;9657;45.940;12.840;2022-12-07T11:32:50;12.50;73.50
19050;DHT22;9657;45.940;12.840;2022-12-07T11:35:29;12.50;72.80
19050;DHT22;9657;45.940;12.840;2022-12-07T11:38:01;12.50;72.80
19050;DHT22;9657;45.940;12.840;2022-12-07T11:40:35;12.50;72.70
19050;DHT22;9657;45.940;12.840;2022-12-07T11:43:12;12.50;72.80
19050;DHT22;9657;45.940;12.840;2022-12-07T11:45:42;12.50;72.80
19050;DHT22;9657;45.940;12.840;2022-12-07T11:48:14;12.50;72.70
19050;DHT22;9657;45.940;12.840;2022-12-07T11:50:46;12.60;72.80
19050;DHT22;9657;45.940;12.840;2022-12-07T11:53:19;12.50;72.80
19050;DHT22;9657;45.940;12.840;2022-12-07T11:55:50;12.50;72.70
19050;DHT22;9657;45.940;12.840;2022-12-07T11:58:46;12.60;72.80
19050;DHT22;9657;45.940;12.840;2022-12-07T12:01:25;12.60;72.80
19050;DHT22;9657;45.940;12.840;2022-12-07T12:03:58;12.50;72.70
19050;DHT22;9657;45.940;12.840;2022-12-07T12:06:28;12.60;72.70
19050;DHT22;9657;45.940;12.840;2022-12-07T12:09:04;12.50;72.60
19050;DHT22;9657;45.940;12.840;2022-12-07T12:11:45;12.50;72.60
19050;DHT22;9657;45.940;12.840;2022-12-07T12:14:29;12.50;72.60
19050;DHT22;9657;45.940;12.840;2022-12-07T12:20:04;12.50;72.70
19050;DHT22;9657;45.940;12.840;2022-12-07T12:22:38;12.60;72.70
19050;DHT22;9657;45.940;12.840;2022-12-07T12:25:19;12.60;72.70
19050;DHT22;9657;45.940;12.840;2022-12-07T12:27:49;12.60;72.80
19050;DHT22;9657;45.940;12.840;2022-12-07T12:30:32;12.50;72.60
19050;DHT22;9657;45.940;12.840;2022-12-07T12:33:04;12.60;72.70
19050;DHT22;9657;45.940;12.840;2022-12-07T12:35:34;12.50;72.60
19050;DHT22;9657;45.940;12.840;2022-12-07T12:38:31;12.60;72.70
19050;DHT22;9657;45.940;12.840;2022-12-07T12:41:00;12.60;72.70
19050;DHT22;9657;45.940;12.840;2022-12-07T12:43:49;12.60;72.70
19050;DHT22;9657;45.940;12.840;2022-12-07T12:46:52;12.60;72.70
19050;DHT22;9657;45.940;12.840;2022-12-07T12:49:40;12.50;72.60
19050;DHT22;9657;45.940;12.840;2022-12-07T12:55:25;12.60;72.70
19050;DHT22;9657;45.940;12.840;2022-12-07T12:58:33;12.60;72.70
19050;DHT22;9657;45.940;12.840;2022-12-07T13:04:39;12.60;72.70
19050;DHT22;9657;45.940;12.840;2022-12-07T13:07:12;12.60;72.70
19050;DHT22;9657;45.940;12.840;2022-12-07T13:09:43;12.60;72.60
19050;DHT22;9657;45.940;12.840;2022-12-07T13:12:15;12.60;72.70
19050;DHT22;9657;45.940;12.840;2022-12-07T13:14:58;12.60;72.70
19050;DHT22;9657;45.940;12.840;2022-12-07T13:17:57;12.60;72.60
19050;DHT22;9657;45.940;12.840;2022-12-07T13:20:52;12.60;72.70
19050;DHT22;9657;45.940;12.840;2022-12-07T13:23:31;12.60;72.70
19050;DHT22;9657;45.940;12.840;2022-12-07T13:26:12;12.60;72.60
19050;DHT22;9657;45.940;12.840;2022-12-07T13:28:44;12.60;72.60
19050;DHT22;9657;45.940;12.840;2022-12-07T13:31:17;12.60;72.60
19050;DHT22;9657;45.940;12.840;2022-12-07T13:33:47;12.60;72.60
19050;DHT22;9657;45.940;12.840;2022-12-07T13:36:20;12.60;72.60
19050;DHT22;9657;45.940;12.840;2022-12-07T13:38:50;12.60;72.60
19050;DHT22;9657;45.940;12.840;2022-12-07T13:41:19;12.60;72.60
19050;DHT22;9657;45.940;12.840;2022-12-07T13:43:50;12.60;72.60
19050;DHT22;9657;45.940;12.840;2022-12-07T13:46:19;12.60;72.60
19050;DHT22;9657;45.940;12.840;2022-12-07T13:48:48;12.60;72.60
19050;DHT22;9657;45.940;12.840;2022-12-07T13:51:22;12.60;72.60
19050;DHT22;9657;45.940;12.840;2022-12-07T13:53:51;12.60;72.60
19050;DHT22;9657;45.940;12.840;2022-12-07T13:56:22;12.60;72.60
19050;DHT22;9657;45.940;12.840;2022-12-07T13:58:50;12.60;72.60
19050;DHT22;9657;45.940;12.840;2022-12-07T14:01:18;12.60;72.60
19050;DHT22;9657;45.940;12.840;2022-12-07T14:03:45;12.60;72.60
19050;DHT22;9657;45.940;12.840;2022-12-07T14:06:17;12.60;72.60
19050;DHT22;9657;45.940;12.840;2022-12-07T14:08:46;12.60;72.60
19050;DHT22;9657;45.940;12.840;2022-12-07T14:11:17;12.60;72.50
19050;DHT22;9657;45.940;12.840;2022-12-07T14:13:54;12.60;72.60
19050;DHT22;9657;45.940;12.840;2022-12-07T14:16:26;12.60;72.50
19050;DHT22;9657;45.940;12.840;2022-12-07T14:18:55;12.60;72.50
19050;DHT22;9657;45.940;12.840;2022-12-07T14:21:24;12.60;72.60
19050;DHT22;9657;45.940;12.840;2022-12-07T14:24:11;12.60;72.60
19050;DHT22;9657;45.940;12.840;2022-12-07T14:26:39;12.60;72.60
19050;DHT22;9657;45.940;12.840;2022-12-07T14:29:22;12.60;72.60
19050;DHT22;9657;45.940;12.840;2022-12-07T14:31:49;12.70;72.60
19050;DHT22;9657;45.940;12.840;2022-12-07T14:34:16;12.60;72.60
19050;DHT22;9657;45.940;12.840;2022-12-07T14:36:43;12.60;72.60
19050;DHT22;9657;45.940;12.840;2022-12-07T14:39:10;12.70;72.60
19050;DHT22;9657;45.940;12.840;2022-12-07T14:41:37;12.60;72.60
19050;DHT22;9657;45.940;12.840;2022-12-07T14:44:23;12.60;72.60
19050;DHT22;9657;45.940;12.840;2022-12-07T14:46:50;12.70;72.60
19050;DHT22;9657;45.940;12.840;2022-12-07T14:49:18;12.70;72.60
19050;DHT22;9657;45.940;12.840;2022-12-07T14:51:46;12.60;72.60
19050;DHT22;9657;45.940;12.840;2022-12-07T14:54:16;12.60;72.50
19050;DHT22;9657;45.940;12.840;2022-12-07T14:56:44;12.60;72.50
19050;DHT22;9657;45.940;12.840;2022-12-07T14:59:15;12.60;72.60
19050;DHT22;9657;45.940;12.840;2022-12-07T15:01:43;12.60;72.60
19050;DHT22;9657;45.940;12.840;2022-12-07T15:04:10;12.60;72.60
19050;DHT22;9657;45.940;12.840;2022-12-07T15:06:37;12.60;72.60
19050;DHT22;9657;45.940;12.840;2022-12-07T15:09:05;12.60;72.50
19050;DHT22;9657;45.940;12.840;2022-12-07T15:11:32;12.60;72.60
19050;DHT22;9657;45.940;12.840;2022-12-07T15:13:59;12.60;72.60
19050;DHT22;9657;45.940;12.840;2022-12-07T15:16:39;12.60;72.60
19050;DHT22;9657;45.940;12.840;2022-12-07T15:19:11;12.70;72.70
19050;DHT22;9657;45.940;12.840;2022-12-07T15:21:39;12.70;72.60
19050;DHT22;9657;45.940;12.840;2022-12-07T15:24:08;12.70;72.70
19050;DHT22;9657;45.940;12.840;2022-12-07T15:26:36;12.70;72.70
19050;DHT22;9657;45.940;12.840;2022-12-07T15:29:03;12.70;72.70
19050;DHT22;9657;45.940;12.840;2022-12-07T15:31:30;12.60;72.60
19050;DHT22;9657;45.940;12.840;2022-12-07T15:33:57;12.60;72.60
19050;DHT22;9657;45.940;12.840;2022-12-07T15:36:27;12.60;72.60
19050;DHT22;9657;45.940;12.840;2022-12-07T15:38:55;12.60;72.60
19050;DHT22;9657;45.940;12.840;2022-12-07T15:41:23;12.70;72.70
19050;DHT22;9657;45.940;12.840;2022-12-07T15:43:50;12.60;72.60
19050;DHT22;9657;45.940;12.840;2022-12-07T15:46:37;12.60;72.70
19050;DHT22;9657;45.940;12.840;2022-12-07T15:49:08;12.70;72.70
19050;DHT22;9657;45.940;12.840;2022-12-07T15:51:37;12.60;72.70
19050;DHT22;9657;45.940;12.840;2022-12-07T15:54:04;12.70;72.70
19050;DHT22;9657;45.940;12.840;2022-12-07T15:56:31;12.60;72.70
19050;DHT22;9657;45.940;12.840;2022-12-07T15:58:58;12.70;72.70
19050;DHT22;9657;45.940;12.840;2022-12-07T16:01:25;12.60;72.60
19050;DHT22;9657;45.940;12.840;2022-12-07T16:03:52;12.60;72.70
19050;DHT22;9657;45.940;12.840;2022-12-07T16:06:19;12.60;72.60
19050;DHT22;9657;45.940;12.840;2022-12-07T16:08:48;12.70;72.70